Time;durP1;ratioP1;P1;durP2;ratioP2;P2;SDS_P1;SDS_P2;PMS_P1;PMS_P2;Temp;Humidity;BMP_temperature;BMP_pressure;BME280_temperature;BME280_humidity;BME280_pressure;Samples;Min_cycle;Max_cycle;Signal;HPM_P1;HPM_P2
2021/07/12 00:00:00;;;;;;;6.38;5.18;;;;;;;;;;5114430;28;20023;-69
2021/07/12 00:02:26;;;;;;;6.18;5.50;;;;;;;;;;5114804;28;20106;-69
2021/07/12 00:04:52;;;;;;;10.00;5.30;;;;;;;;;;5114574;28;20055;-69
2021/07/12 00:07:18;;;;;;;7.60;5.03;;;;;;;;;;5114467;28;20043;-70
2021/07/12 00:09:46;;;;;;;12.60;5.55;;;;;;;;;;5114125;28;20443;-69
2021/07/12 00:12:12;;;;;;;6.60;5.18;;;;;;;;;;5114337;28;20360;-70
2021/07/12 00:14:38;;;;;;;9.60;5.70;;;;;;;;;;5114296;28;20084;-70
2021/07/12 00:17:05;;;;;;;8.00;6.10;;;;;;;;;;5114270;28;20043;-70
2021/07/12 00:19:31;;;;;;;7.80;5.53;;;;;;;;;;5114196;28;20085;-70
2021/07/12 00:21:59;;;;;;;9.40;6.32;;;;;;;;;;5114263;28;20139;-69
2021/07/12 00:24:25;;;;;;;9.05;5.97;;;;;;;;;;5113914;28;20031;-69
2021/07/12 00:26:51;;;;;;;9.35;5.65;;;;;;;;;;5113770;28;20384;-70
2021/07/12 00:29:17;;;;;;;7.38;5.78;;;;;;;;;;5114156;28;20027;-70
2021/07/12 00:31:43;;;;;;;6.55;5.47;;;;;;;;;;5113989;28;20022;-69
2021/07/12 00:34:12;;;;;;;6.70;5.93;;;;;;;;;;5113727;28;20034;-70
2021/07/12 00:36:38;;;;;;;6.72;5.90;;;;;;;;;;5113946;28;20035;-69
2021/07/12 00:39:04;;;;;;;7.40;5.38;;;;;;;;;;5113893;28;20062;-69
2021/07/12 00:41:30;;;;;;;6.47;5.82;;;;;;;;;;5113695;28;20023;-69
2021/07/12 00:43:56;;;;;;;11.00;5.78;;;;;;;;;;5113661;28;20546;-70
2021/07/12 00:46:22;;;;;;;8.55;6.10;;;;;;;;;;5113958;28;20353;-70
2021/07/12 00:48:49;;;;;;;12.18;6.15;;;;;;;;;;5113928;28;20477;-69
2021/07/12 00:51:15;;;;;;;6.65;6.03;;;;;;;;;;5113747;28;20510;-69
2021/07/12 00:53:41;;;;;;;8.43;6.10;;;;;;;;;;5113682;28;20115;-69
2021/07/12 00:56:09;;;;;;;7.25;5.70;;;;;;;;;;5113494;28;20027;-70
2021/07/12 00:58:35;;;;;;;8.75;6.40;;;;;;;;;;5111369;28;20059;-70
2021/07/12 01:01:02;;;;;;;6.57;5.70;;;;;;;;;;5110816;28;20066;-70
2021/07/12 01:03:28;;;;;;;8.68;5.85;;;;;;;;;;5110745;28;20074;-73
2021/07/12 01:05:54;;;;;;;13.32;6.50;;;;;;;;;;5113008;28;20027;-70
2021/07/12 01:08:21;;;;;;;6.28;5.68;;;;;;;;;;5113346;28;20031;-69
2021/07/12 01:10:55;;;;;;;7.70;6.03;;;;;;;;;;5113232;28;20012;-69
2021/07/12 01:13:29;;;;;;;6.85;6.05;;;;;;;;;;5112880;28;20152;-70
2021/07/12 01:16:10;;;;;;;7.03;6.32;;;;;;;;;;5113552;28;20047;-69
2021/07/12 01:18:42;;;;;;;6.78;6.00;;;;;;;;;;5113482;28;20102;-69
2021/07/12 01:21:27;;;;;;;9.75;6.13;;;;;;;;;;5113089;28;20081;-70
2021/07/12 01:24:12;;;;;;;9.52;6.18;;;;;;;;;;5112774;28;20031;-71
2021/07/12 01:26:49;;;;;;;7.50;6.10;;;;;;;;;;5112915;28;20028;-70
2021/07/12 01:29:25;;;;;;;9.63;6.70;;;;;;;;;;5111498;28;20020;-70
2021/07/12 01:32:15;;;;;;;9.65;6.72;;;;;;;;;;5112959;28;20032;-69
2021/07/12 01:34:44;;;;;;;7.43;6.70;;;;;;;;;;5113141;28;20046;-69
2021/07/12 01:37:29;;;;;;;11.10;6.07;;;;;;;;;;5112858;28;20031;-69
2021/07/12 01:40:03;;;;;;;7.38;6.25;;;;;;;;;;5112791;28;20031;-70
2021/07/12 01:42:33;;;;;;;7.70;6.40;;;;;;;;;;5112985;28;20126;-72
2021/07/12 01:45:10;;;;;;;7.70;5.90;;;;;;;;;;5111655;28;20016;-69
2021/07/12 01:47:36;;;;;;;8.05;5.65;;;;;;;;;;5111876;28;20114;-69
2021/07/12 01:50:21;;;;;;;7.72;6.07;;;;;;;;;;5112893;28;20543;-69
2021/07/12 01:52:53;;;;;;;8.00;6.38;;;;;;;;;;5113042;28;20465;-69
2021/07/12 01:55:22;;;;;;;8.70;5.65;;;;;;;;;;5112983;28;20036;-69
2021/07/12 01:57:52;;;;;;;9.88;6.78;;;;;;;;;;5112571;28;20028;-69
2021/07/12 02:00:19;;;;;;;9.05;6.05;;;;;;;;;;5112623;28;20028;-70
2021/07/12 02:02:48;;;;;;;6.75;6.05;;;;;;;;;;5112749;28;20020;-69
2021/07/12 02:05:17;;;;;;;9.32;6.68;;;;;;;;;;5112973;28;20016;-69
2021/07/12 02:07:43;;;;;;;7.18;6.15;;;;;;;;;;5114451;28;20030;-69
2021/07/12 02:10:10;;;;;;;11.85;6.70;;;;;;;;;;5116170;28;20349;-69
2021/07/12 02:12:39;;;;;;;10.48;6.20;;;;;;;;;;5116721;28;20028;-69
2021/07/12 02:15:06;;;;;;;7.10;6.35;;;;;;;;;;5116291;28;20502;-69
2021/07/12 02:17:32;;;;;;;8.95;6.10;;;;;;;;;;5116784;28;20476;-69
2021/07/12 02:20:03;;;;;;;7.00;6.30;;;;;;;;;;5116567;28;20483;-69
2021/07/12 02:22:29;;;;;;;7.57;6.10;;;;;;;;;;5116672;28;20019;-69
2021/07/12 02:24:59;;;;;;;9.50;6.60;;;;;;;;;;5116560;28;20031;-69
2021/07/12 02:27:26;;;;;;;9.60;6.70;;;;;;;;;;5116497;28;20023;-69
2021/07/12 02:29:56;;;;;;;9.02;6.65;;;;;;;;;;5116753;28;20480;-69
2021/07/12 02:32:23;;;;;;;7.63;6.50;;;;;;;;;;5116646;28;20055;-69
2021/07/12 02:34:49;;;;;;;7.75;6.10;;;;;;;;;;5116103;28;20036;-69
2021/07/12 02:37:16;;;;;;;8.82;6.43;;;;;;;;;;5116211;28;20019;-69
2021/07/12 02:39:42;;;;;;;7.53;5.90;;;;;;;;;;5116233;28;20031;-68
2021/07/12 02:42:09;;;;;;;7.07;6.38;;;;;;;;;;5116154;28;20052;-69
2021/07/12 02:44:36;;;;;;;7.22;5.93;;;;;;;;;;5115816;28;20034;-69
2021/07/12 02:47:02;;;;;;;8.95;5.88;;;;;;;;;;5116054;28;20026;-69
2021/07/12 02:49:29;;;;;;;8.82;6.25;;;;;;;;;;5115766;28;20032;-69
2021/07/12 02:52:00;;;;;;;8.82;6.43;;;;;;;;;;5116146;27;20020;-69
2021/07/12 02:54:30;;;;;;;7.60;6.70;;;;;;;;;;5115915;28;20475;-69
2021/07/12 02:56:56;;;;;;;10.05;6.57;;;;;;;;;;5115750;28;20028;-69
2021/07/12 02:59:23;;;;;;;6.88;6.15;;;;;;;;;;5116148;28;20035;-69
2021/07/12 03:01:49;;;;;;;13.98;6.82;;;;;;;;;;5116031;28;20032;-69
2021/07/12 03:04:15;;;;;;;12.45;6.82;;;;;;;;;;5116090;28;20019;-69
2021/07/12 03:06:44;;;;;;;8.45;6.72;;;;;;;;;;5115677;28;20102;-69
2021/07/12 03:09:11;;;;;;;7.15;6.45;;;;;;;;;;5115850;28;20084;-70
2021/07/12 03:11:42;;;;;;;7.72;6.60;;;;;;;;;;5115339;28;20080;-69
2021/07/12 03:14:21;;;;;;;7.75;6.03;;;;;;;;;;5115386;28;20036;-69
2021/07/12 03:16:49;;;;;;;8.73;6.70;;;;;;;;;;5115515;28;20055;-69
2021/07/12 03:19:22;;;;;;;9.18;6.53;;;;;;;;;;5114382;28;20020;-69
2021/07/12 03:21:49;;;;;;;13.40;6.95;;;;;;;;;;5115408;28;20028;-70
2021/07/12 03:24:16;;;;;;;21.02;6.78;;;;;;;;;;5115248;28;20479;-70
2021/07/12 03:26:43;;;;;;;22.02;6.70;;;;;;;;;;5114049;28;20020;-69
2021/07/12 03:29:10;;;;;;;9.60;6.75;;;;;;;;;;5115287;28;20027;-69
2021/07/12 03:31:36;;;;;;;15.50;6.90;;;;;;;;;;5115344;28;20095;-69
2021/07/12 03:34:02;;;;;;;14.10;7.07;;;;;;;;;;5114924;28;20498;-69
2021/07/12 03:36:30;;;;;;;7.30;6.60;;;;;;;;;;5115036;28;20384;-69
2021/07/12 03:38:57;;;;;;;10.52;6.78;;;;;;;;;;5115054;28;20110;-69
2021/07/12 03:41:23;;;;;;;10.98;7.32;;;;;;;;;;5114859;28;20020;-69
2021/07/12 03:43:49;;;;;;;9.55;6.60;;;;;;;;;;5114894;28;20028;-68
2021/07/12 03:46:16;;;;;;;7.82;6.72;;;;;;;;;;5115052;28;20020;-69
2021/07/12 03:48:46;;;;;;;12.05;6.97;;;;;;;;;;5115065;28;20028;-69
2021/07/12 03:51:21;;;;;;;7.30;6.60;;;;;;;;;;5114787;28;20024;-69
2021/07/12 03:53:47;;;;;;;9.20;7.38;;;;;;;;;;5114682;28;20371;-69
2021/07/12 03:56:16;;;;;;;11.70;6.28;;;;;;;;;;5114788;28;20422;-69
2021/07/12 03:58:42;;;;;;;11.23;7.20;;;;;;;;;;5114879;28;20024;-69
2021/07/12 04:01:08;;;;;;;7.82;6.47;;;;;;;;;;5114797;28;20023;-69
2021/07/12 04:03:34;;;;;;;8.13;7.20;;;;;;;;;;5114394;28;20095;-69
2021/07/12 04:06:00;;;;;;;8.75;7.22;;;;;;;;;;5114548;28;20130;-69
2021/07/12 04:08:26;;;;;;;9.18;7.05;;;;;;;;;;5114476;28;20026;-69
2021/07/12 04:10:53;;;;;;;7.40;6.70;;;;;;;;;;5114407;28;20417;-69
2021/07/12 04:13:19;;;;;;;9.30;6.80;;;;;;;;;;5114312;28;20073;-69
2021/07/12 04:15:45;;;;;;;9.85;7.07;;;;;;;;;;5114229;28;20054;-69
2021/07/12 04:18:11;;;;;;;9.32;6.63;;;;;;;;;;5113999;28;20019;-69
2021/07/12 04:20:45;;;;;;;7.65;6.85;;;;;;;;;;5114372;28;20024;-69
2021/07/12 04:23:11;;;;;;;11.90;7.28;;;;;;;;;;5114051;28;20028;-69
2021/07/12 04:25:37;;;;;;;12.07;7.30;;;;;;;;;;5114117;28;20103;-69
2021/07/12 04:28:03;;;;;;;17.60;7.22;;;;;;;;;;5114248;28;20028;-69
2021/07/12 04:30:30;;;;;;;9.10;6.97;;;;;;;;;;5112523;28;20055;-69
2021/07/12 04:32:56;;;;;;;11.45;7.40;;;;;;;;;;5113909;28;20023;-70
2021/07/12 04:35:22;;;;;;;7.40;6.70;;;;;;;;;;5113859;28;20035;-68
2021/07/12 04:37:48;;;;;;;12.80;7.20;;;;;;;;;;5113957;28;20038;-69
2021/07/12 04:40:14;;;;;;;13.65;6.95;;;;;;;;;;5114296;28;20036;-69
2021/07/12 04:42:41;;;;;;;17.15;7.45;;;;;;;;;;5113888;28;20027;-69
2021/07/12 04:45:07;;;;;;;14.68;7.20;;;;;;;;;;5112442;28;20368;-69
2021/07/12 04:47:33;;;;;;;8.77;6.95;;;;;;;;;;5113694;28;20027;-69
2021/07/12 04:49:59;;;;;;;7.80;7.00;;;;;;;;;;5113493;28;20034;-71
2021/07/12 04:52:25;;;;;;;15.13;7.65;;;;;;;;;;5113625;28;20042;-71
2021/07/12 04:54:51;;;;;;;12.77;7.43;;;;;;;;;;5113804;28;20031;-71
2021/07/12 04:57:17;;;;;;;12.20;7.07;;;;;;;;;;5114102;28;20030;-71
2021/07/12 04:59:44;;;;;;;10.93;6.82;;;;;;;;;;5113613;28;20020;-71
2021/07/12 05:02:12;;;;;;;10.88;6.70;;;;;;;;;;5113581;28;20078;-70
2021/07/12 05:04:38;;;;;;;7.47;6.65;;;;;;;;;;5113729;28;20099;-70
2021/07/12 05:07:06;;;;;;;13.00;7.20;;;;;;;;;;5113759;28;20031;-69
2021/07/12 05:09:32;;;;;;;13.43;7.00;;;;;;;;;;5113557;28;20028;-70
2021/07/12 05:11:58;;;;;;;13.27;7.03;;;;;;;;;;5113618;28;20028;-68
2021/07/12 05:14:25;;;;;;;9.77;7.13;;;;;;;;;;5113435;28;20043;-66
2021/07/12 05:16:52;;;;;;;7.05;6.35;;;;;;;;;;5113330;28;20038;-66
2021/07/12 05:19:18;;;;;;;9.00;7.20;;;;;;;;;;5113602;28;20097;-67
2021/07/12 05:21:44;;;;;;;23.40;7.50;;;;;;;;;;5113539;28;20030;-68
2021/07/12 05:24:11;;;;;;;36.42;6.90;;;;;;;;;;5113292;28;20468;-66
2021/07/12 05:26:37;;;;;;;10.35;7.03;;;;;;;;;;5113549;28;20456;-65
2021/07/12 05:29:03;;;;;;;8.30;7.30;;;;;;;;;;5113156;28;20069;-66
2021/07/12 05:31:29;;;;;;;12.77;7.07;;;;;;;;;;5113080;28;20015;-66
2021/07/12 05:33:55;;;;;;;7.20;6.55;;;;;;;;;;5112989;28;20456;-66
2021/07/12 05:36:21;;;;;;;7.95;7.05;;;;;;;;;;5113444;28;20102;-66
2021/07/12 05:38:47;;;;;;;9.10;6.85;;;;;;;;;;5113147;28;20031;-66
2021/07/12 05:41:13;;;;;;;9.38;7.13;;;;;;;;;;5113013;28;20028;-66
2021/07/12 05:43:39;;;;;;;9.50;7.20;;;;;;;;;;5116284;28;20028;-66
2021/07/12 05:46:06;;;;;;;17.42;7.50;;;;;;;;;;5117067;28;20027;-66
2021/07/12 05:48:35;;;;;;;10.38;7.22;;;;;;;;;;5116839;28;20030;-66
2021/07/12 05:51:03;;;;;;;8.20;6.75;;;;;;;;;;5116839;28;20031;-66
2021/07/12 05:53:29;;;;;;;7.97;7.03;;;;;;;;;;5116912;28;20063;-66
2021/07/12 05:55:55;;;;;;;17.27;7.50;;;;;;;;;;5116937;28;20065;-69
2021/07/12 05:58:21;;;;;;;8.75;6.95;;;;;;;;;;5116977;28;20127;-69
2021/07/12 06:00:47;;;;;;;8.10;6.53;;;;;;;;;;5117176;28;20094;-70
2021/07/12 06:03:13;;;;;;;7.40;6.68;;;;;;;;;;5116647;28;20102;-71
2021/07/12 06:05:39;;;;;;;11.45;6.47;;;;;;;;;;5116765;28;20023;-71
2021/07/12 06:08:06;;;;;;;12.15;6.47;;;;;;;;;;5115921;28;20030;-71
2021/07/12 06:10:42;;;;;;;10.93;7.20;;;;;;;;;;5114964;28;20388;-71
2021/07/12 06:13:08;;;;;;;12.20;6.30;;;;;;;;;;5114837;28;20697;-71
2021/07/12 06:15:34;;;;;;;7.70;6.22;;;;;;;;;;5113649;28;20496;-71
2021/07/12 06:18:00;;;;;;;8.05;6.53;;;;;;;;;;5114277;28;20399;-71
2021/07/12 06:20:26;;;;;;;9.48;6.53;;;;;;;;;;5116831;28;20076;-71
2021/07/12 06:22:52;;;;;;;10.52;7.38;;;;;;;;;;5116680;28;20078;-71
2021/07/12 06:25:20;;;;;;;9.65;6.75;;;;;;;;;;5116397;28;20055;-71
2021/07/12 06:27:46;;;;;;;8.77;6.40;;;;;;;;;;5116709;28;20429;-71
2021/07/12 06:30:15;;;;;;;11.27;6.90;;;;;;;;;;5116429;28;20051;-71
2021/07/12 06:32:41;;;;;;;11.10;7.15;;;;;;;;;;5116449;28;20073;-70
2021/07/12 06:35:07;;;;;;;6.78;6.03;;;;;;;;;;5116291;28;20036;-71
2021/07/12 06:37:34;;;;;;;13.10;6.72;;;;;;;;;;5116229;28;20020;-71
2021/07/12 06:40:01;;;;;;;7.50;6.70;;;;;;;;;;5116390;28;20034;-70
2021/07/12 06:42:27;;;;;;;8.15;6.90;;;;;;;;;;5116250;28;20074;-71
2021/07/12 06:44:57;;;;;;;12.02;7.05;;;;;;;;;;5116638;28;20031;-69
2021/07/12 06:47:24;;;;;;;9.90;6.40;;;;;;;;;;5116272;28;20024;-71
2021/07/12 06:49:50;;;;;;;11.82;6.97;;;;;;;;;;5116089;28;20019;-70
2021/07/12 06:52:16;;;;;;;8.95;6.88;;;;;;;;;;5116121;28;20438;-70
2021/07/12 06:54:45;;;;;;;7.65;6.85;;;;;;;;;;5115463;28;20357;-69
2021/07/12 06:57:11;;;;;;;7.18;6.47;;;;;;;;;;5115980;28;20024;-70
2021/07/12 06:59:37;;;;;;;11.43;6.53;;;;;;;;;;5115896;28;20028;-71
2021/07/12 07:02:03;;;;;;;13.00;6.90;;;;;;;;;;5115854;28;20043;-71
2021/07/12 07:04:29;;;;;;;7.93;6.10;;;;;;;;;;5115753;28;20038;-70
2021/07/12 07:06:55;;;;;;;7.25;5.78;;;;;;;;;;5115859;28;20015;-71
2021/07/12 07:09:21;;;;;;;19.13;6.45;;;;;;;;;;5115678;28;20028;-71
2021/07/12 07:11:47;;;;;;;7.88;6.40;;;;;;;;;;5115569;28;20023;-70
2021/07/12 07:14:13;;;;;;;11.02;5.90;;;;;;;;;;5115193;28;20404;-71
2021/07/12 07:16:39;;;;;;;7.35;6.28;;;;;;;;;;5115415;28;20116;-71
2021/07/12 07:19:05;;;;;;;7.82;6.47;;;;;;;;;;5115379;28;20421;-72
2021/07/12 07:21:31;;;;;;;11.77;7.10;;;;;;;;;;5115321;28;20024;-70
2021/07/12 07:23:59;;;;;;;7.30;6.47;;;;;;;;;;5115270;28;20016;-71
2021/07/12 07:26:25;;;;;;;20.92;6.65;;;;;;;;;;5115364;28;20522;-71
2021/07/12 07:28:53;;;;;;;10.25;7.22;;;;;;;;;;5115386;28;20024;-72
2021/07/12 07:31:20;;;;;;;8.15;6.50;;;;;;;;;;5115561;28;20059;-72
2021/07/12 07:33:46;;;;;;;6.68;6.07;;;;;;;;;;5115247;28;20031;-73
2021/07/12 07:36:12;;;;;;;9.50;6.55;;;;;;;;;;5113607;28;20558;-72
2021/07/12 07:38:38;;;;;;;14.07;6.85;;;;;;;;;;5115114;28;20028;-71
2021/07/12 07:41:04;;;;;;;7.97;6.50;;;;;;;;;;5114895;28;20099;-71
2021/07/12 07:43:31;;;;;;;8.45;6.30;;;;;;;;;;5114835;28;20023;-71
2021/07/12 07:45:57;;;;;;;11.77;7.45;;;;;;;;;;5115161;28;20155;-72
2021/07/12 07:48:23;;;;;;;7.18;6.47;;;;;;;;;;5114957;28;20019;-72
2021/07/12 07:50:49;;;;;;;7.50;5.93;;;;;;;;;;5114828;28;20027;-72
2021/07/12 07:53:17;;;;;;;13.15;6.45;;;;;;;;;;5114513;28;20027;-70
2021/07/12 07:55:43;;;;;;;10.82;6.50;;;;;;;;;;5114842;28;20028;-72
2021/07/12 07:58:09;;;;;;;11.93;6.32;;;;;;;;;;5114871;28;20043;-72
2021/07/12 08:00:36;;;;;;;13.02;6.03;;;;;;;;;;5114738;28;20062;-71
2021/07/12 08:03:04;;;;;;;9.23;6.63;;;;;;;;;;5114336;28;20028;-72
2021/07/12 08:05:30;;;;;;;14.43;6.60;;;;;;;;;;5113978;28;20043;-72
2021/07/12 08:07:57;;;;;;;8.27;6.07;;;;;;;;;;5114462;28;20106;-72
2021/07/12 08:10:23;;;;;;;12.50;6.90;;;;;;;;;;5114494;28;20051;-71
2021/07/12 08:12:49;;;;;;;10.70;6.03;;;;;;;;;;5114346;28;20022;-72
2021/07/12 08:15:15;;;;;;;11.82;5.47;;;;;;;;;;5114235;28;20053;-71
2021/07/12 08:17:41;;;;;;;8.23;5.65;;;;;;;;;;5114506;28;20042;-72
2021/07/12 08:20:11;;;;;;;9.45;6.40;;;;;;;;;;5114219;28;20046;-72
2021/07/12 08:22:37;;;;;;;9.20;6.00;;;;;;;;;;5114180;28;20051;-71
2021/07/12 08:25:04;;;;;;;8.15;5.70;;;;;;;;;;5114105;28;20024;-72
2021/07/12 08:27:32;;;;;;;8.20;5.78;;;;;;;;;;5114058;28;20052;-71
2021/07/12 08:29:58;;;;;;;7.45;5.82;;;;;;;;;;5114329;28;20028;-72
2021/07/12 08:32:24;;;;;;;8.90;6.28;;;;;;;;;;5114071;28;20024;-71
2021/07/12 08:34:50;;;;;;;8.25;5.88;;;;;;;;;;5113931;28;20088;-72
2021/07/12 08:37:20;;;;;;;10.82;5.60;;;;;;;;;;5114095;28;20492;-72
2021/07/12 08:39:46;;;;;;;6.25;5.65;;;;;;;;;;5113982;28;20030;-72
2021/07/12 08:42:13;;;;;;;7.28;5.22;;;;;;;;;;5114011;28;20024;-72
2021/07/12 08:44:39;;;;;;;8.05;5.50;;;;;;;;;;5113640;28;20383;-72
2021/07/12 08:47:06;;;;;;;6.38;5.75;;;;;;;;;;5113897;28;20429;-72
2021/07/12 08:49:33;;;;;;;8.65;5.68;;;;;;;;;;5113744;28;20069;-72
2021/07/12 08:52:05;;;;;;;7.32;5.35;;;;;;;;;;5113582;28;20047;-72
2021/07/12 08:54:32;;;;;;;8.80;5.57;;;;;;;;;;5113824;28;20036;-71
2021/07/12 08:56:58;;;;;;;5.80;4.50;;;;;;;;;;5113859;28;20023;-71
2021/07/12 08:59:26;;;;;;;6.45;5.05;;;;;;;;;;5113641;28;20019;-72
2021/07/12 09:02:06;;;;;;;7.43;5.30;;;;;;;;;;5113875;28;20015;-71
2021/07/12 09:04:32;;;;;;;9.20;5.50;;;;;;;;;;5113666;28;20071;-72
2021/07/12 09:06:59;;;;;;;7.07;5.43;;;;;;;;;;5113550;28;20094;-72
2021/07/12 09:09:25;;;;;;;7.38;5.03;;;;;;;;;;5113899;28;20383;-69
2021/07/12 09:11:51;;;;;;;9.02;4.88;;;;;;;;;;5113587;28;20023;-69
2021/07/12 09:14:18;;;;;;;6.95;5.05;;;;;;;;;;5113313;28;20032;-70
2021/07/12 09:16:48;;;;;;;8.13;4.65;;;;;;;;;;5115509;28;20051;-70
2021/07/12 09:19:30;;;;;;;9.73;5.30;;;;;;;;;;5117921;28;20027;-69
2021/07/12 09:22:02;;;;;;;9.20;5.50;;;;;;;;;;5117820;28;20068;-69
2021/07/12 09:24:33;;;;;;;10.40;4.95;;;;;;;;;;5117429;28;20020;-70
2021/07/12 09:27:02;;;;;;;8.85;5.78;;;;;;;;;;5117640;28;20027;-70
2021/07/12 09:29:33;;;;;;;5.80;5.20;;;;;;;;;;5117378;28;20024;-70
2021/07/12 09:32:00;;;;;;;6.28;4.93;;;;;;;;;;5117676;28;20030;-70
2021/07/12 09:34:26;;;;;;;6.68;4.78;;;;;;;;;;5117517;28;20080;-70
2021/07/12 09:36:53;;;;;;;6.90;4.90;;;;;;;;;;5117379;28;20023;-70
2021/07/12 09:39:28;;;;;;;5.68;5.05;;;;;;;;;;5116068;28;20046;-70
2021/07/12 09:41:54;;;;;;;5.38;4.60;;;;;;;;;;5117721;28;20036;-70
2021/07/12 09:44:21;;;;;;;5.43;4.45;;;;;;;;;;5117292;28;20491;-69
2021/07/12 09:46:47;;;;;;;7.32;4.55;;;;;;;;;;5117468;28;20073;-69
2021/07/12 09:49:17;;;;;;;6.32;4.55;;;;;;;;;;5117466;28;20103;-70
2021/07/12 09:51:46;;;;;;;7.72;4.88;;;;;;;;;;5117156;28;20026;-69
2021/07/12 09:54:19;;;;;;;7.18;4.70;;;;;;;;;;5117151;28;20093;-70
2021/07/12 09:56:48;;;;;;;5.35;4.35;;;;;;;;;;5117225;28;20384;-69
2021/07/12 09:59:15;;;;;;;7.30;4.80;;;;;;;;;;5117034;28;20016;-70
2021/07/12 10:01:54;;;;;;;5.35;4.80;;;;;;;;;;5117082;28;20042;-70
2021/07/12 10:04:21;;;;;;;4.70;4.30;;;;;;;;;;5117172;28;20051;-69
2021/07/12 10:06:51;;;;;;;6.82;4.15;;;;;;;;;;5117197;28;20034;-69
2021/07/12 10:09:21;;;;;;;6.43;4.35;;;;;;;;;;5117080;28;20012;-70
2021/07/12 10:11:48;;;;;;;4.30;3.80;;;;;;;;;;5116923;28;20460;-70
2021/07/12 10:14:14;;;;;;;6.95;4.20;;;;;;;;;;5116724;28;20057;-70
2021/07/12 10:16:40;;;;;;;4.75;4.28;;;;;;;;;;5116620;28;20122;-69
2021/07/12 10:19:07;;;;;;;6.38;4.05;;;;;;;;;;5116961;28;20051;-69
2021/07/12 10:21:40;;;;;;;6.65;3.95;;;;;;;;;;5116954;28;20478;-69
2021/07/12 10:24:07;;;;;;;5.57;3.88;;;;;;;;;;5116766;28;20024;-69
2021/07/12 10:26:44;;;;;;;4.60;3.70;;;;;;;;;;5116437;28;20464;-69
2021/07/12 10:29:14;;;;;;;4.18;3.20;;;;;;;;;;5115869;28;20027;-69
2021/07/12 10:31:59;;;;;;;7.30;3.28;;;;;;;;;;5116619;28;20034;-69
2021/07/12 10:34:26;;;;;;;4.45;3.88;;;;;;;;;;5116205;28;20151;-70
2021/07/12 10:37:02;;;;;;;4.05;3.55;;;;;;;;;;5116508;28;20035;-69
2021/07/12 10:39:48;;;;;;;4.43;3.80;;;;;;;;;;5116396;28;20376;-70
2021/07/12 10:42:34;;;;;;;6.95;3.85;;;;;;;;;;5094571;28;20477;-69
2021/07/12 10:45:20;;;;;;;4.63;3.83;;;;;;;;;;5115851;28;20101;-69
2021/07/12 10:47:48;;;;;;;6.22;4.10;;;;;;;;;;5109066;28;20086;-69
2021/07/12 10:50:32;;;;;;;4.18;3.78;;;;;;;;;;5116141;28;20357;-69
2021/07/12 10:52:58;;;;;;;5.85;4.18;;;;;;;;;;5115935;28;20031;-69
2021/07/12 10:55:32;;;;;;;7.38;4.25;;;;;;;;;;5116308;28;20035;-69
2021/07/12 10:58:17;;;;;;;5.13;4.20;;;;;;;;;;5116196;28;20028;-69
2021/07/12 11:00:43;;;;;;;4.50;4.10;;;;;;;;;;5115824;28;20023;-70
2021/07/12 11:03:38;;;;;;;4.80;3.60;;;;;;;;;;5115747;28;20024;-70
2021/07/12 11:06:17;;;;;;;5.50;3.42;;;;;;;;;;5106808;28;20449;-69
2021/07/12 11:08:43;;;;;;;4.93;3.40;;;;;;;;;;5114606;28;20035;-70
2021/07/12 11:11:10;;;;;;;11.43;4.10;;;;;;;;;;5115910;28;20072;-70
2021/07/12 11:13:57;;;;;;;6.97;3.08;;;;;;;;;;5115859;28;20106;-70
2021/07/12 11:16:24;;;;;;;7.53;3.40;;;;;;;;;;5115622;28;20048;-70
2021/07/12 11:18:52;;;;;;;7.53;3.67;;;;;;;;;;5115781;28;20031;-70
2021/07/12 11:21:28;;;;;;;6.63;3.33;;;;;;;;;;5115600;28;20035;-70
2021/07/12 11:23:56;;;;;;;5.30;3.67;;;;;;;;;;5115553;28;20032;-70
2021/07/12 11:26:27;;;;;;;6.47;3.45;;;;;;;;;;5115595;28;20048;-70
2021/07/12 11:28:54;;;;;;;10.18;3.58;;;;;;;;;;5115670;28;20038;-70
2021/07/12 11:31:39;;;;;;;9.02;3.45;;;;;;;;;;5115494;28;20568;-70
2021/07/12 11:34:25;;;;;;;10.13;3.67;;;;;;;;;;5115247;28;20031;-69
2021/07/12 11:36:54;;;;;;;4.15;3.50;;;;;;;;;;5115376;28;20080;-69
2021/07/12 11:39:21;;;;;;;6.97;3.40;;;;;;;;;;5114415;28;20019;-69
2021/07/12 11:41:47;;;;;;;5.35;2.85;;;;;;;;;;5114792;28;20020;-70
2021/07/12 11:44:14;;;;;;;6.90;2.92;;;;;;;;;;5114929;28;20035;-70
2021/07/12 11:46:40;;;;;;;5.45;2.90;;;;;;;;;;5114835;28;20020;-70
2021/07/12 11:49:10;;;;;;;6.00;2.90;;;;;;;;;;5115110;28;20031;-70
2021/07/12 11:51:37;;;;;;;5.55;2.90;;;;;;;;;;5115240;28;20110;-70
2021/07/12 11:54:03;;;;;;;5.60;3.42;;;;;;;;;;5115046;28;20039;-70
2021/07/12 11:56:30;;;;;;;7.20;2.80;;;;;;;;;;5114583;28;20073;-70
2021/07/12 11:58:57;;;;;;;7.53;2.78;;;;;;;;;;5115127;28;20040;-70
2021/07/12 12:01:23;;;;;;;5.70;2.72;;;;;;;;;;5115662;28;20463;-70
2021/07/12 12:04:04;;;;;;;5.53;2.40;;;;;;;;;;5114502;28;20055;-70
2021/07/12 12:06:31;;;;;;;4.93;2.40;;;;;;;;;;5114794;27;20549;-70
2021/07/12 12:09:00;;;;;;;3.47;2.40;;;;;;;;;;5114523;28;20436;-70
2021/07/12 12:11:29;;;;;;;4.22;2.30;;;;;;;;;;5114532;28;20034;-69
2021/07/12 12:13:56;;;;;;;4.25;2.17;;;;;;;;;;5114276;28;20028;-70
2021/07/12 12:16:26;;;;;;;7.20;2.90;;;;;;;;;;5114152;28;20048;-70
2021/07/12 12:18:54;;;;;;;4.13;2.58;;;;;;;;;;5114461;28;20027;-70
2021/07/12 12:21:20;;;;;;;4.82;3.00;;;;;;;;;;5114541;28;20031;-70
2021/07/12 12:23:46;;;;;;;8.98;2.63;;;;;;;;;;5114454;28;20488;-70
2021/07/12 12:26:15;;;;;;;5.75;2.38;;;;;;;;;;5114361;28;20020;-70
2021/07/12 12:28:44;;;;;;;6.38;2.28;;;;;;;;;;5114516;28;20502;-70
2021/07/12 12:31:17;;;;;;;6.22;2.17;;;;;;;;;;5114251;28;20035;-70
2021/07/12 12:33:45;;;;;;;4.95;2.50;;;;;;;;;;5114017;28;20032;-71
2021/07/12 12:36:12;;;;;;;5.40;2.00;;;;;;;;;;5113912;28;20511;-70
2021/07/12 12:38:50;;;;;;;2.72;2.15;;;;;;;;;;5113988;28;20023;-70
2021/07/12 12:41:19;;;;;;;7.70;2.45;;;;;;;;;;5114324;28;20027;-70
2021/07/12 12:43:58;;;;;;;4.20;2.50;;;;;;;;;;5114157;28;20023;-70
2021/07/12 12:46:24;;;;;;;3.78;2.70;;;;;;;;;;5113793;28;20099;-70
2021/07/12 12:48:50;;;;;;;4.90;2.30;;;;;;;;;;5114080;28;20047;-70
2021/07/12 12:51:24;;;;;;;8.35;2.30;;;;;;;;;;5113752;28;20050;-70
2021/07/12 12:54:08;;;;;;;5.95;2.40;;;;;;;;;;5113752;28;20435;-70
2021/07/12 12:56:36;;;;;;;7.18;2.33;;;;;;;;;;5113729;28;20070;-70
2021/07/12 12:59:06;;;;;;;9.52;2.38;;;;;;;;;;5113518;28;20028;-70
2021/07/12 13:01:33;;;;;;;4.78;2.08;;;;;;;;;;5113651;28;20084;-70
2021/07/12 13:04:06;;;;;;;5.88;2.30;;;;;;;;;;5113640;28;20035;-70
2021/07/12 13:06:39;;;;;;;6.05;2.03;;;;;;;;;;5113869;28;20486;-70
2021/07/12 13:09:06;;;;;;;3.30;1.80;;;;;;;;;;5113775;28;20020;-70
2021/07/12 13:11:34;;;;;;;8.07;1.95;;;;;;;;;;5113542;28;20067;-70
2021/07/12 13:14:00;;;;;;;6.88;2.38;;;;;;;;;;5113427;28;20051;-70
2021/07/12 13:16:30;;;;;;;9.05;1.80;;;;;;;;;;5113672;28;20055;-70
2021/07/12 13:18:56;;;;;;;4.22;2.00;;;;;;;;;;5112205;28;20016;-69
2021/07/12 13:21:40;;;;;;;9.13;1.80;;;;;;;;;;5113422;28;20036;-70
2021/07/12 13:24:06;;;;;;;2.58;1.73;;;;;;;;;;5112124;28;20114;-70
2021/07/12 13:26:32;;;;;;;7.32;2.00;;;;;;;;;;5113568;28;20479;-70
2021/07/12 13:29:01;;;;;;;4.63;1.77;;;;;;;;;;5113775;28;20049;-70
2021/07/12 13:31:27;;;;;;;5.22;1.77;;;;;;;;;;5113443;28;20483;-70
2021/07/12 13:33:53;;;;;;;3.10;1.77;;;;;;;;;;5113385;28;20126;-70
2021/07/12 13:36:19;;;;;;;4.80;1.83;;;;;;;;;;5113383;28;20026;-70
2021/07/12 13:38:45;;;;;;;2.88;1.75;;;;;;;;;;5113322;28;20979;-70
2021/07/12 13:41:11;;;;;;;4.80;2.10;;;;;;;;;;5113531;28;20027;-70
2021/07/12 13:43:38;;;;;;;3.67;1.90;;;;;;;;;;5113053;28;20024;-70
2021/07/12 13:46:04;;;;;;;4.05;1.95;;;;;;;;;;5113228;28;20027;-70
2021/07/12 13:48:31;;;;;;;8.15;2.33;;;;;;;;;;5113375;28;20023;-70
2021/07/12 13:50:57;;;;;;;4.70;2.10;;;;;;;;;;5113333;28;20035;-70
2021/07/12 13:53:24;;;;;;;3.58;1.83;;;;;;;;;;5111724;28;20429;-70
2021/07/12 13:55:50;;;;;;;2.33;1.70;;;;;;;;;;5113514;28;20073;-70
2021/07/12 13:58:16;;;;;;;5.15;1.85;;;;;;;;;;5113394;28;20026;-70
2021/07/12 14:00:42;;;;;;;8.18;1.92;;;;;;;;;;5113295;28;20055;-70
2021/07/12 14:03:09;;;;;;;4.53;1.80;;;;;;;;;;5113702;28;20043;-70
2021/07/12 14:05:35;;;;;;;4.95;1.75;;;;;;;;;;5116841;28;20027;-70
2021/07/12 14:08:01;;;;;;;4.18;1.80;;;;;;;;;;5117016;28;20102;-70
2021/07/12 14:10:27;;;;;;;7.18;1.95;;;;;;;;;;5116923;28;20020;-70
2021/07/12 14:12:54;;;;;;;4.05;1.92;;;;;;;;;;5116991;28;20031;-70
2021/07/12 14:15:21;;;;;;;6.72;1.73;;;;;;;;;;5116708;28;20047;-70
2021/07/12 14:17:47;;;;;;;5.22;1.88;;;;;;;;;;5116910;28;20144;-70
2021/07/12 14:20:13;;;;;;;1.98;1.67;;;;;;;;;;5116751;28;20035;-70
2021/07/12 14:22:40;;;;;;;4.63;1.77;;;;;;;;;;5116638;28;20652;-69
2021/07/12 14:25:06;;;;;;;4.95;1.73;;;;;;;;;;5116786;28;20028;-70
2021/07/12 14:27:32;;;;;;;7.07;2.03;;;;;;;;;;5116697;28;20383;-70
2021/07/12 14:29:58;;;;;;;3.65;1.70;;;;;;;;;;5116455;28;20426;-70
2021/07/12 14:32:24;;;;;;;1.80;1.58;;;;;;;;;;5116413;28;20388;-70
2021/07/12 14:34:50;;;;;;;6.20;1.73;;;;;;;;;;5116231;28;20168;-70
2021/07/12 14:37:17;;;;;;;4.53;1.75;;;;;;;;;;5116804;28;20023;-70
2021/07/12 14:39:43;;;;;;;8.40;1.83;;;;;;;;;;5116661;28;20406;-70
2021/07/12 14:42:10;;;;;;;3.80;2.38;;;;;;;;;;5116194;28;20027;-70
2021/07/12 14:44:39;;;;;;;7.15;1.80;;;;;;;;;;5116237;28;20032;-70
2021/07/12 14:47:06;;;;;;;10.05;1.98;;;;;;;;;;5116360;28;20019;-70